Time;durP1;ratioP1;P1;durP2;ratioP2;P2;SDS_P1;SDS_P2;PMS_P1;PMS_P2;Temp;Humidity;BMP_temperature;BMP_pressure;BME280_temperature;BME280_humidity;BME280_pressure;Samples;Min_cycle;Max_cycle;Signal;HPM_P1;HPM_P2
2023/05/09 00:00:52;;;;;;;22.70;15.77;;;17.00;99.90;;;;;;5005575;28;20061;-65
2023/05/09 00:03:18;;;;;;;20.60;15.57;;;16.90;99.90;;;;;;4996230;28;20070;-65
2023/05/09 00:05:43;;;;;;;19.42;14.73;;;16.90;99.90;;;;;;5000186;28;20037;-65
2023/05/09 00:08:09;;;;;;;20.25;14.90;;;16.80;99.90;;;;;;5013419;28;20040;-64
2023/05/09 00:10:35;;;;;;;17.35;14.50;;;16.80;99.90;;;;;;5005144;28;20048;-65
2023/05/09 00:13:01;;;;;;;15.75;14.07;;;16.80;99.90;;;;;;5009256;28;20064;-65
2023/05/09 00:15:27;;;;;;;17.58;14.73;;;16.70;99.90;;;;;;5004164;28;20034;-64
2023/05/09 00:17:53;;;;;;;15.60;13.98;;;16.60;99.90;;;;;;5007645;28;20087;-64
2023/05/09 00:20:19;;;;;;;15.48;13.75;;;16.60;99.90;;;;;;5007818;28;20042;-65
2023/05/09 00:22:45;;;;;;;16.95;13.95;;;16.70;99.90;;;;;;5007384;28;20063;-65
2023/05/09 00:25:10;;;;;;;15.38;13.77;;;16.50;99.90;;;;;;4999568;28;20722;-64
2023/05/09 00:27:36;;;;;;;16.17;14.57;;;16.50;99.90;;;;;;5003534;28;20033;-65
2023/05/09 00:30:03;;;;;;;17.92;14.32;;;16.50;99.90;;;;;;4999976;28;20489;-64
2023/05/09 00:32:29;;;;;;;15.75;14.05;;;16.50;99.90;;;;;;5004081;28;20042;-65
2023/05/09 00:34:55;;;;;;;16.80;13.95;;;16.50;99.90;;;;;;5011490;28;20038;-65
2023/05/09 00:37:20;;;;;;;17.30;14.10;;;16.40;99.90;;;;;;5001484;28;20048;-64
2023/05/09 00:39:47;;;;;;;15.85;13.93;;;16.40;99.90;;;;;;4992709;28;20092;-64
2023/05/09 00:42:14;;;;;;;16.65;13.77;;;16.40;99.90;;;;;;5003664;28;20050;-65
2023/05/09 00:44:39;;;;;;;17.15;14.90;;;16.40;99.90;;;;;;4999840;28;20277;-64
2023/05/09 00:47:06;;;;;;;15.43;13.77;;;16.40;99.90;;;;;;4991608;28;20062;-64
2023/05/09 00:49:31;;;;;;;18.52;15.45;;;16.30;99.90;;;;;;5005944;28;20584;-65
2023/05/09 00:51:57;;;;;;;16.38;14.70;;;16.30;99.90;;;;;;5010622;28;20034;-65
2023/05/09 00:54:23;;;;;;;16.98;15.18;;;16.30;99.90;;;;;;5008924;28;20151;-64
2023/05/09 00:56:50;;;;;;;16.83;15.10;;;16.20;99.90;;;;;;5003568;28;20554;-65
2023/05/09 00:59:16;;;;;;;16.50;14.73;;;16.30;99.90;;;;;;5012234;28;20163;-65
2023/05/09 01:01:42;;;;;;;16.35;14.45;;;16.50;99.90;;;;;;5003736;28;20038;-65
2023/05/09 01:04:08;;;;;;;15.88;13.45;;;16.50;99.90;;;;;;5005782;28;20046;-64
2023/05/09 01:07:14;;;;;;;15.43;13.82;;;16.40;99.90;;;;;;5001212;28;20042;-64
2023/05/09 01:09:55;;;;;;;16.65;14.02;;;16.40;99.90;;;;;;4900111;29;20044;-65
2023/05/09 01:12:37;;;;;;;15.65;13.98;;;16.50;99.90;;;;;;4895039;29;20052;-65
2023/05/09 01:15:21;;;;;;;15.70;14.10;;;16.40;99.90;;;;;;4966538;28;20065;-64
2023/05/09 01:17:58;;;;;;;15.60;14.00;;;16.40;99.90;;;;;;4997151;28;20607;-65
2023/05/09 01:20:38;;;;;;;18.10;14.80;;;16.30;99.90;;;;;;5000905;28;20217;-65
2023/05/09 01:23:29;;;;;;;16.92;14.75;;;16.30;99.90;;;;;;5011360;28;20034;-65
2023/05/09 01:26:26;;;;;;;16.88;15.15;;;16.30;99.90;;;;;;5001677;28;20034;-65
2023/05/09 01:29:26;;;;;;;18.10;15.40;;;16.40;99.90;;;;;;4986668;28;20037;-65
2023/05/09 01:31:54;;;;;;;18.40;15.95;;;16.40;99.90;;;;;;5015047;28;20814;-65
2023/05/09 01:34:23;;;;;;;19.60;15.60;;;16.40;99.90;;;;;;5007680;28;20037;-64
2023/05/09 01:36:53;;;;;;;16.58;14.52;;;16.40;99.90;;;;;;5005159;28;20088;-64
2023/05/09 01:39:19;;;;;;;19.83;15.75;;;16.40;99.90;;;;;;5011546;28;20073;-64
2023/05/09 01:41:45;;;;;;;18.65;14.57;;;16.40;99.90;;;;;;5009800;28;20038;-65
2023/05/09 01:44:12;;;;;;;18.02;15.10;;;16.40;99.90;;;;;;5009672;28;20099;-64
2023/05/09 01:46:38;;;;;;;18.05;14.77;;;16.60;99.90;;;;;;5002396;28;20194;-65
2023/05/09 01:49:07;;;;;;;20.55;15.35;;;16.50;99.90;;;;;;5002707;28;20041;-64
2023/05/09 01:51:33;;;;;;;23.45;15.73;;;16.50;99.90;;;;;;5000942;28;20582;-64
2023/05/09 01:54:00;;;;;;;17.17;14.85;;;16.50;99.90;;;;;;5009940;28;20461;-65
2023/05/09 01:56:26;;;;;;;16.90;15.05;;;16.40;99.90;;;;;;5003353;28;20061;-64
2023/05/09 01:58:54;;;;;;;16.40;14.27;;;16.40;99.90;;;;;;5008002;28;20420;-65
2023/05/09 02:01:21;;;;;;;16.35;14.70;;;16.50;99.90;;;;;;4990400;28;20050;-65
2023/05/09 02:03:51;;;;;;;18.00;13.90;;;16.50;99.90;;;;;;5011117;28;20026;-65
2023/05/09 02:06:19;;;;;;;17.48;15.27;;;16.40;99.90;;;;;;5001879;28;20042;-65
2023/05/09 02:08:45;;;;;;;16.20;14.57;;;16.50;99.90;;;;;;5005695;28;20485;-65
2023/05/09 02:11:11;;;;;;;19.35;14.50;;;16.40;99.90;;;;;;5006846;28;20041;-64
2023/05/09 02:13:37;;;;;;;17.20;15.07;;;16.40;99.90;;;;;;5002558;28;20048;-65
2023/05/09 02:16:04;;;;;;;18.35;15.40;;;16.40;99.90;;;;;;5006861;28;20048;-64
2023/05/09 02:18:31;;;;;;;31.40;22.85;;;16.60;99.90;;;;;;5008880;28;20063;-64
2023/05/09 02:20:57;;;;;;;31.58;23.35;;;16.70;99.90;;;;;;5020820;28;20309;-64
2023/05/09 02:23:22;;;;;;;33.20;24.35;;;16.60;99.90;;;;;;5011919;28;20890;-64
2023/05/09 02:25:49;;;;;;;41.88;26.98;;;16.70;99.90;;;;;;5000616;28;20048;-65
2023/05/09 02:28:17;;;;;;;45.15;30.98;;;16.70;99.90;;;;;;5007809;28;20038;-64
2023/05/09 02:30:45;;;;;;;42.88;28.45;;;16.70;99.90;;;;;;4993149;28;20062;-65
2023/05/09 02:33:13;;;;;;;42.65;27.83;;;16.70;99.90;;;;;;5013341;28;20025;-64
2023/05/09 02:35:42;;;;;;;57.22;33.50;;;16.70;99.90;;;;;;4995577;28;20455;-65
2023/05/09 02:38:08;;;;;;;53.88;34.72;;;16.90;99.90;;;;;;5006635;28;20050;-64
2023/05/09 02:40:35;;;;;;;57.42;35.78;;;16.80;99.90;;;;;;5006655;28;20045;-64
2023/05/09 02:43:00;;;;;;;59.90;38.58;;;16.70;99.90;;;;;;5005803;28;20175;-65
2023/05/09 02:45:26;;;;;;;60.55;37.55;;;16.70;99.90;;;;;;5005785;28;20857;-64
2023/05/09 02:47:52;;;;;;;62.05;38.72;;;;;;;;;;5004407;28;20041;-64
2023/05/09 02:50:18;;;;;;;59.60;37.97;;;16.50;99.90;;;;;;5007474;28;20145;-64
2023/05/09 02:52:43;;;;;;;67.88;40.55;;;16.70;99.90;;;;;;5009431;28;20053;-65
2023/05/09 02:55:09;;;;;;;69.38;41.53;;;16.60;99.90;;;;;;5006537;28;20092;-64
2023/05/09 02:57:35;;;;;;;68.28;40.35;;;16.50;99.90;;;;;;5006878;28;20029;-65
2023/05/09 03:00:01;;;;;;;77.15;43.30;;;16.50;99.90;;;;;;4999656;28;20034;-64
2023/05/09 03:02:27;;;;;;;73.13;43.60;;;16.50;99.90;;;;;;4996447;28;20042;-65
2023/05/09 03:04:52;;;;;;;73.68;43.92;;;16.50;99.90;;;;;;5003662;28;20038;-65
2023/05/09 03:07:18;;;;;;;73.28;42.75;;;16.50;99.90;;;;;;5004725;28;20128;-65
2023/05/09 03:09:43;;;;;;;77.95;43.65;;;16.50;99.90;;;;;;5011109;28;20134;-64
2023/05/09 03:12:09;;;;;;;80.80;46.13;;;16.60;99.90;;;;;;5012090;28;20063;-64
2023/05/09 03:14:35;;;;;;;80.53;46.78;;;16.70;99.90;;;;;;5005948;28;20045;-64
2023/05/09 03:17:01;;;;;;;81.43;44.95;;;16.50;99.90;;;;;;5005386;28;20026;-65
2023/05/09 03:19:26;;;;;;;71.97;43.05;;;16.40;99.90;;;;;;5006828;28;20113;-64
2023/05/09 03:21:52;;;;;;;79.70;45.72;;;16.40;99.90;;;;;;5002046;28;20034;-64
2023/05/09 03:24:17;;;;;;;89.47;50.05;;;16.30;99.90;;;;;;5006031;28;20136;-64
2023/05/09 03:26:43;;;;;;;85.97;48.67;;;16.50;99.90;;;;;;5007457;28;20033;-64
2023/05/09 03:29:08;;;;;;;84.28;47.78;;;16.70;99.90;;;;;;5010961;28;20038;-64
2023/05/09 03:31:34;;;;;;;85.90;48.33;;;16.60;99.90;;;;;;5008318;28;20693;-65
2023/05/09 03:34:00;;;;;;;84.78;48.10;;;16.50;99.90;;;;;;5002255;28;20727;-65
2023/05/09 03:36:26;;;;;;;87.38;48.78;;;16.60;99.90;;;;;;5003242;28;20037;-65
2023/05/09 03:38:51;;;;;;;87.45;48.90;;;16.60;99.90;;;;;;5007285;28;20040;-64
2023/05/09 03:41:17;;;;;;;83.75;49.03;;;16.50;99.90;;;;;;5008670;28;20445;-64
2023/05/09 03:43:43;;;;;;;89.05;48.75;;;16.60;99.90;;;;;;4995748;28;20038;-65
2023/05/09 03:46:09;;;;;;;85.68;48.20;;;16.60;99.90;;;;;;5006551;28;20045;-64
2023/05/09 03:48:35;;;;;;;86.82;49.08;;;16.50;99.90;;;;;;5003027;28;20034;-64
2023/05/09 03:51:01;;;;;;;87.13;48.95;;;16.40;99.90;;;;;;4999981;28;20305;-65
2023/05/09 03:53:27;;;;;;;87.88;50.05;;;16.40;99.90;;;;;;5011546;28;20596;-64
2023/05/09 03:55:52;;;;;;;80.75;47.13;;;16.30;99.90;;;;;;5006327;28;20041;-65
2023/05/09 03:58:18;;;;;;;88.22;49.08;;;16.40;99.90;;;;;;5007836;28;20030;-64
2023/05/09 04:00:44;;;;;;;83.65;47.95;;;16.30;99.90;;;;;;5007442;28;20044;-64
2023/05/09 04:03:10;;;;;;;87.75;49.53;;;16.40;99.90;;;;;;5008602;28;20034;-64
2023/05/09 04:05:36;;;;;;;92.47;50.63;;;16.30;99.90;;;;;;5009038;28;20509;-64
2023/05/09 04:08:02;;;;;;;79.88;46.50;;;16.40;99.90;;;;;;5002054;28;20038;-65
2023/05/09 04:10:29;;;;;;;84.22;49.03;;;16.30;99.90;;;;;;5006795;28;20037;-64
2023/05/09 04:12:55;;;;;;;82.25;48.15;;;16.30;99.90;;;;;;5006022;28;20046;-65
2023/05/09 04:15:21;;;;;;;90.80;49.20;;;16.40;99.90;;;;;;5003573;28;20038;-64
2023/05/09 04:17:46;;;;;;;76.40;46.97;;;16.30;99.90;;;;;;4992328;28;20038;-64
2023/05/09 04:20:12;;;;;;;82.22;46.80;;;16.40;99.90;;;;;;5002358;28;20545;-64
2023/05/09 04:22:38;;;;;;;84.10;47.88;;;16.50;99.90;;;;;;5005326;28;20486;-64
2023/05/09 04:25:04;;;;;;;88.15;48.75;;;16.50;99.90;;;;;;5010322;28;20037;-64
2023/05/09 04:27:29;;;;;;;77.60;45.05;;;16.40;99.90;;;;;;5011825;28;20403;-64
2023/05/09 04:29:55;;;;;;;76.70;44.75;;;16.60;99.90;;;;;;4994461;28;20053;-67
2023/05/09 04:32:21;;;;;;;74.75;43.63;;;16.50;99.90;;;;;;5011287;28;20100;-65
2023/05/09 04:34:47;;;;;;;73.95;43.63;;;16.40;99.90;;;;;;5008874;28;20113;-67
2023/05/09 04:37:12;;;;;;;72.38;43.45;;;16.50;99.90;;;;;;5007404;28;20058;-66
2023/05/09 04:39:38;;;;;;;70.57;42.47;;;16.60;99.90;;;;;;5006832;28;20038;-66
2023/05/09 04:42:04;;;;;;;68.45;41.70;;;16.50;99.90;;;;;;5007732;28;20058;-65
2023/05/09 04:44:30;;;;;;;73.65;43.80;;;16.60;99.90;;;;;;5006247;28;20077;-66
2023/05/09 04:46:56;;;;;;;70.72;40.50;;;16.50;99.90;;;;;;5006404;28;20129;-66
2023/05/09 04:49:22;;;;;;;64.80;39.22;;;16.60;99.90;;;;;;5014327;28;20374;-66
2023/05/09 04:51:48;;;;;;;64.85;39.10;;;16.70;99.90;;;;;;5004434;28;20041;-67
2023/05/09 04:54:13;;;;;;;68.70;40.72;;;16.70;99.90;;;;;;5017192;28;20087;-66
2023/05/09 04:56:39;;;;;;;66.15;39.90;;;16.70;99.90;;;;;;5007939;28;20038;-66
2023/05/09 04:59:05;;;;;;;72.05;41.38;;;16.70;99.90;;;;;;4997518;28;20034;-65
2023/05/09 05:01:31;;;;;;;68.95;41.00;;;16.70;99.90;;;;;;5006796;28;20164;-66
2023/05/09 05:03:56;;;;;;;68.88;41.28;;;16.70;99.90;;;;;;5006135;28;20125;-67
2023/05/09 05:06:22;;;;;;;65.60;38.33;;;16.80;99.90;;;;;;5009124;28;20026;-66
2023/05/09 05:08:47;;;;;;;67.22;38.53;;;16.80;99.90;;;;;;5003951;28;20049;-66
2023/05/09 05:11:13;;;;;;;67.95;40.22;;;16.90;99.90;;;;;;5001023;28;20038;-66
2023/05/09 05:13:38;;;;;;;69.95;40.13;;;16.90;99.90;;;;;;5004665;28;20061;-66
2023/05/09 05:16:04;;;;;;;63.95;39.95;;;16.80;99.90;;;;;;5004122;28;20502;-66
2023/05/09 05:18:30;;;;;;;67.50;39.15;;;16.80;99.90;;;;;;5008149;28;20121;-66
2023/05/09 05:20:55;;;;;;;61.33;36.85;;;16.90;99.90;;;;;;5007050;28;20038;-66
2023/05/09 05:23:21;;;;;;;60.80;36.42;;;16.90;99.90;;;;;;5010068;28;20093;-66
2023/05/09 05:25:47;;;;;;;55.42;34.22;;;16.80;99.90;;;;;;5007360;28;20057;-67
2023/05/09 05:28:13;;;;;;;52.47;32.85;;;16.80;99.90;;;;;;5009368;28;20233;-66
2023/05/09 05:30:39;;;;;;;49.28;31.83;;;16.80;99.90;;;;;;5006450;28;20038;-67
2023/05/09 05:33:05;;;;;;;48.92;30.08;;;17.00;99.90;;;;;;5011623;28;20508;-66
2023/05/09 05:35:31;;;;;;;51.90;29.80;;;17.40;99.90;;;;;;5015443;28;20114;-66
2023/05/09 05:37:56;;;;;;;46.67;28.83;;;17.20;99.90;;;;;;5006479;28;20146;-67
2023/05/09 05:40:22;;;;;;;42.78;28.30;;;17.10;99.90;;;;;;5006646;28;20117;-67
2023/05/09 05:42:47;;;;;;;44.90;29.92;;;17.10;99.90;;;;;;5004174;28;20069;-67
2023/05/09 05:45:13;;;;;;;43.25;28.35;;;17.40;99.90;;;;;;4990663;28;20084;-66
2023/05/09 05:47:39;;;;;;;42.15;27.20;;;17.20;99.90;;;;;;5007932;28;20452;-66
2023/05/09 05:50:10;;;;;;;40.97;27.13;;;17.20;99.90;;;;;;4986851;28;20034;-66
2023/05/09 05:52:37;;;;;;;36.80;25.38;;;17.20;99.90;;;;;;5005325;28;20048;-66
2023/05/09 05:55:03;;;;;;;41.30;26.88;;;17.30;99.90;;;;;;5006042;28;20060;-66
2023/05/09 05:57:29;;;;;;;39.90;25.73;;;17.30;99.90;;;;;;5009316;28;20061;-66
2023/05/09 05:59:55;;;;;;;43.15;27.05;;;17.40;99.90;;;;;;5008745;28;20052;-67
2023/05/09 06:02:20;;;;;;;40.63;26.13;;;17.40;99.90;;;;;;5004813;28;20057;-66
2023/05/09 06:04:46;;;;;;;39.67;26.30;;;17.30;99.90;;;;;;5003607;28;20042;-67
2023/05/09 06:07:12;;;;;;;38.13;26.90;;;17.20;99.90;;;;;;5009722;28;20033;-67
2023/05/09 06:09:38;;;;;;;41.30;27.45;;;17.30;99.90;;;;;;5000492;28;20062;-66
2023/05/09 06:12:05;;;;;;;42.83;28.90;;;17.30;99.90;;;;;;4984717;28;20112;-66
2023/05/09 06:14:30;;;;;;;49.63;30.60;;;17.40;99.90;;;;;;4990219;28;20046;-66
2023/05/09 06:16:56;;;;;;;48.33;31.58;;;17.60;99.90;;;;;;5004296;28;20097;-66
2023/05/09 06:19:22;;;;;;;47.78;30.85;;;17.80;99.90;;;;;;5004930;28;20080;-66
2023/05/09 06:21:49;;;;;;;52.10;34.08;;;;;;;;;;5006763;28;20053;-66
2023/05/09 06:24:14;;;;;;;58.05;37.28;;;18.00;99.90;;;;;;4999278;28;20701;-66
2023/05/09 06:26:40;;;;;;;63.65;40.60;;;18.20;99.90;;;;;;5003384;28;20080;-66
2023/05/09 06:29:06;;;;;;;63.50;40.15;;;17.90;99.90;;;;;;5011834;28;20166;-66
2023/05/09 06:31:34;;;;;;;61.60;40.08;;;18.20;99.90;;;;;;5004642;28;20046;-66
2023/05/09 06:34:00;;;;;;;62.20;37.78;;;18.10;99.90;;;;;;5001438;28;20053;-66
2023/05/09 06:36:25;;;;;;;58.80;36.60;;;18.30;99.90;;;;;;4989216;28;20037;-67
2023/05/09 06:38:51;;;;;;;53.95;37.10;;;18.20;99.90;;;;;;5000714;28;20038;-66
2023/05/09 06:41:17;;;;;;;48.17;33.08;;;18.30;99.90;;;;;;5004820;28;20422;-66
2023/05/09 06:43:42;;;;;;;49.42;32.70;;;18.20;99.90;;;;;;5010972;28;20022;-66
2023/05/09 06:46:08;;;;;;;51.95;32.97;;;18.30;99.90;;;;;;5013730;28;20112;-65
2023/05/09 06:48:33;;;;;;;46.58;32.63;;;18.30;99.90;;;;;;5001798;28;20113;-67
2023/05/09 06:50:59;;;;;;;50.33;32.53;;;18.40;99.90;;;;;;5009386;28;20369;-67
2023/05/09 06:53:25;;;;;;;46.17;32.38;;;18.50;99.90;;;;;;5009046;28;20188;-66
2023/05/09 06:55:50;;;;;;;43.80;32.05;;;18.50;99.90;;;;;;5010099;28;20034;-67
2023/05/09 06:58:16;;;;;;;44.55;32.28;;;18.40;99.90;;;;;;4995533;28;20046;-66
2023/05/09 07:00:41;;;;;;;47.05;33.05;;;18.30;99.90;;;;;;5002728;28;20045;-67
2023/05/09 07:03:07;;;;;;;46.80;33.25;;;18.40;99.90;;;;;;4994971;28;20084;-65
2023/05/09 07:05:33;;;;;;;39.65;31.35;;;18.40;99.90;;;;;;4996004;28;20050;-66
2023/05/09 07:07:59;;;;;;;41.15;31.73;;;18.30;99.90;;;;;;4997153;28;20077;-66
2023/05/09 07:10:25;;;;;;;41.50;31.33;;;18.30;99.90;;;;;;4979357;28;20045;-66
2023/05/09 07:12:50;;;;;;;41.17;30.30;;;18.40;99.90;;;;;;4997313;28;20489;-66
2023/05/09 07:15:16;;;;;;;41.78;30.10;;;18.20;99.90;;;;;;4998978;28;20025;-66
2023/05/09 07:17:41;;;;;;;35.45;27.50;;;18.30;99.90;;;;;;4995887;28;20042;-66
2023/05/09 07:20:07;;;;;;;35.80;27.60;;;18.20;99.90;;;;;;4998415;28;20030;-66
2023/05/09 07:22:33;;;;;;;37.08;27.52;;;18.10;99.90;;;;;;5004788;28;20126;-67
2023/05/09 07:24:59;;;;;;;32.65;25.83;;;18.00;99.90;;;;;;5001896;28;20253;-67
2023/05/09 07:27:24;;;;;;;37.97;28.58;;;17.90;99.90;;;;;;4989508;28;20042;-67
2023/05/09 07:29:51;;;;;;;44.85;32.67;;;17.80;99.90;;;;;;4971845;28;20073;-66
2023/05/09 07:32:19;;;;;;;38.75;28.02;;;18.00;99.90;;;;;;5005574;28;20071;-66
2023/05/09 07:34:45;;;;;;;38.28;27.50;;;18.20;99.90;;;;;;5015824;28;20030;-67
2023/05/09 07:37:11;;;;;;;38.20;27.13;;;18.30;99.90;;;;;;5003607;28;20045;-66
2023/05/09 07:39:36;;;;;;;39.13;27.50;;;18.40;99.90;;;;;;5011290;28;20033;-66
2023/05/09 07:42:02;;;;;;;35.10;25.65;;;18.50;99.90;;;;;;5006685;28;20457;-65
2023/05/09 07:44:28;;;;;;;34.80;26.58;;;18.60;99.90;;;;;;5003827;28;20057;-66
2023/05/09 07:46:54;;;;;;;34.97;26.05;;;18.80;99.90;;;;;;4995833;28;20117;-66
2023/05/09 07:49:20;;;;;;;32.53;26.77;;;18.80;99.90;;;;;;4999066;28;20038;-66
2023/05/09 07:51:46;;;;;;;31.30;23.90;;;18.80;99.90;;;;;;5004418;28;20147;-66
2023/05/09 07:54:12;;;;;;;33.72;26.50;;;19.00;99.90;;;;;;4992284;28;20524;-66
2023/05/09 07:56:38;;;;;;;31.65;24.40;;;19.10;99.90;;;;;;4999697;28;20117;-66
2023/05/09 07:59:03;;;;;;;32.80;25.25;;;19.10;99.90;;;;;;5003115;28;20034;-66
2023/05/09 08:01:29;;;;;;;31.63;23.33;;;19.10;99.90;;;;;;4998361;28;20466;-66
2023/05/09 08:03:55;;;;;;;25.85;20.63;;;19.30;99.90;;;;;;4984327;28;20883;-66
2023/05/09 08:06:20;;;;;;;24.33;18.38;;;19.30;99.90;;;;;;4999239;28;20050;-66
2023/05/09 08:08:46;;;;;;;23.95;16.83;;;19.30;99.90;;;;;;5003124;28;20060;-66
2023/05/09 08:11:12;;;;;;;22.77;18.38;;;;;;;;;;4991985;28;20186;-65
2023/05/09 08:13:40;;;;;;;24.05;16.20;;;;;;;;;;5005021;28;20041;-66
2023/05/09 08:16:07;;;;;;;17.52;13.35;;;;;;;;;;5001855;28;20136;-65
2023/05/09 08:18:33;;;;;;;19.67;14.90;;;;;;;;;;5004840;28;20042;-67
2023/05/09 08:21:01;;;;;;;21.13;15.52;;;;;;;;;;5001373;28;20119;-66
2023/05/09 08:23:28;;;;;;;19.75;16.08;;;19.70;99.90;;;;;;5001134;28;20454;-66
2023/05/09 08:25:55;;;;;;;21.02;15.70;;;;;;;;;;4999274;28;20038;-66
2023/05/09 08:28:23;;;;;;;19.02;13.98;;;;;;;;;;5000285;28;20046;-66
2023/05/09 08:30:51;;;;;;;12.95;10.82;;;20.20;99.90;;;;;;5003520;28;20042;-66
2023/05/09 08:33:17;;;;;;;14.23;11.10;;;20.10;99.90;;;;;;4995632;28;20042;-66
2023/05/09 08:35:43;;;;;;;16.27;11.95;;;20.10;99.90;;;;;;4999058;28;20042;-66
2023/05/09 08:38:08;;;;;;;18.05;13.15;;;20.00;99.90;;;;;;4994955;28;20365;-66
2023/05/09 08:40:36;;;;;;;15.52;13.13;;;20.20;99.90;;;;;;4995891;28;20133;-66
2023/05/09 08:43:03;;;;;;;17.77;13.52;;;;;;;;;;4998162;28;20267;-65
2023/05/09 08:45:30;;;;;;;21.60;13.02;;;;;;;;;;4999101;28;20046;-66
2023/05/09 08:47:57;;;;;;;17.45;11.05;;;;;;;;;;4996013;28;20661;-66
2023/05/09 08:50:24;;;;;;;13.27;9.82;;;;;;;;;;4996605;28;20041;-66
2023/05/09 08:52:51;;;;;;;12.98;8.90;;;20.60;99.90;;;;;;5007045;28;20107;-67
2023/05/09 08:55:16;;;;;;;9.60;7.50;;;20.60;99.90;;;;;;4997467;28;20517;-66
2023/05/09 08:57:42;;;;;;;12.98;8.20;;;20.50;99.90;;;;;;5000601;28;20042;-66
2023/05/09 09:00:10;;;;;;;10.77;7.88;;;20.60;99.90;;;;;;4995408;28;20640;-65
2023/05/09 09:02:40;;;;;;;11.68;7.20;;;19.90;99.90;;;;;;4997651;28;20041;-66
2023/05/09 09:05:06;;;;;;;9.18;6.35;;;20.60;99.90;;;;;;4984134;28;20045;-66
2023/05/09 09:07:34;;;;;;;12.38;7.20;;;;;;;;;;4997657;28;20061;-66
2023/05/09 09:10:02;;;;;;;9.30;6.80;;;20.40;99.90;;;;;;4995794;28;20136;-66
2023/05/09 09:12:30;;;;;;;9.68;6.50;;;20.70;99.90;;;;;;5001186;28;20034;-66
2023/05/09 09:14:59;;;;;;;11.55;7.32;;;20.70;99.90;;;;;;5002852;28;20030;-66
2023/05/09 09:17:29;;;;;;;10.80;7.35;;;20.90;99.90;;;;;;4999662;28;20030;-67
2023/05/09 09:19:59;;;;;;;10.50;7.50;;;20.80;99.90;;;;;;5012127;28;20030;-66
2023/05/09 09:22:31;;;;;;;10.27;7.45;;;;;;;;;;5006266;28;20624;-66
2023/05/09 09:24:58;;;;;;;9.02;6.20;;;21.00;99.90;;;;;;5007017;28;20391;-66
2023/05/09 09:27:23;;;;;;;9.50;5.45;;;21.10;99.90;;;;;;5001021;28;20041;-66
2023/05/09 09:29:49;;;;;;;7.85;5.72;;;21.00;99.90;;;;;;5003612;28;20041;-66
2023/05/09 09:32:17;;;;;;;9.05;6.05;;;21.40;99.90;;;;;;5003704;28;20045;-66
2023/05/09 09:34:43;;;;;;;7.82;5.18;;;;;;;;;;5004704;28;20675;-66
2023/05/09 09:37:19;;;;;;;10.57;6.93;;;21.20;99.90;;;;;;4993385;28;20069;-66
2023/05/09 09:39:56;;;;;;;10.50;5.70;;;;;;;;;;4989633;28;21913;-66
2023/05/09 09:42:22;;;;;;;7.68;4.97;;;21.40;99.90;;;;;;4994568;28;20527;-66
2023/05/09 09:45:02;;;;;;;9.73;4.85;;;21.00;99.90;;;;;;5008047;28;20297;-66
2023/05/09 09:47:31;;;;;;;8.30;4.82;;;21.20;99.90;;;;;;5013255;28;20050;-66
2023/05/09 09:49:57;;;;;;;7.70;4.43;;;21.30;99.90;;;;;;4997855;28;20125;-67
2023/05/09 09:52:24;;;;;;;5.85;4.18;;;21.20;99.90;;;;;;5004119;28;20504;-66
2023/05/09 09:54:49;;;;;;;9.00;4.47;;;21.30;99.90;;;;;;5013030;28;20030;-66
2023/05/09 09:57:34;;;;;;;7.20;4.68;;;21.40;99.90;;;;;;5005380;28;20195;-66
2023/05/09 09:59:59;;;;;;;10.43;3.95;;;21.40;99.90;;;;;;5007521;28;20040;-66
2023/05/09 10:02:25;;;;;;;7.28;3.88;;;21.30;99.90;;;;;;5005937;28;20335;-66
2023/05/09 10:04:51;;;;;;;9.45;4.18;;;21.60;99.90;;;;;;5009464;28;20545;-67
2023/05/09 10:07:22;;;;;;;7.05;3.92;;;21.50;99.90;;;;;;5011766;28;20060;-66
2023/05/09 10:09:48;;;;;;;8.27;3.95;;;21.50;99.90;;;;;;4994379;28;20054;-66
2023/05/09 10:12:18;;;;;;;6.13;4.03;;;21.50;99.90;;;;;;4999708;28;20387;-66
2023/05/09 10:14:46;;;;;;;6.57;4.10;;;20.80;99.90;;;;;;4996886;28;20037;-67
2023/05/09 10:17:13;;;;;;;6.65;3.83;;;21.30;99.90;;;;;;4984102;28;20045;-66
2023/05/09 10:19:46;;;;;;;6.50;3.63;;;21.40;99.90;;;;;;5004888;28;20034;-66
2023/05/09 10:22:16;;;;;;;11.60;4.15;;;21.40;99.90;;;;;;5003808;28;20417;-65
2023/05/09 10:25:04;;;;;;;8.95;3.70;;;21.60;99.90;;;;;;4986018;28;20560;-66
2023/05/09 10:27:34;;;;;;;7.82;3.90;;;21.90;99.90;;;;;;5001100;28;20682;-66
2023/05/09 10:30:09;;;;;;;8.85;3.75;;;21.80;99.90;;;;;;5004861;28;20037;-66
2023/05/09 10:32:46;;;;;;;6.43;4.10;;;21.90;99.90;;;;;;4999312;28;20045;-66
2023/05/09 10:35:15;;;;;;;8.95;4.40;;;22.00;99.90;;;;;;4994766;28;20532;-66
2023/05/09 10:37:41;;;;;;;6.13;3.70;;;22.00;99.90;;;;;;4980972;28;20038;-67
2023/05/09 10:40:08;;;;;;;7.03;3.75;;;22.00;99.90;;;;;;4996651;28;20112;-65
2023/05/09 10:42:34;;;;;;;6.13;4.03;;;22.00;99.90;;;;;;5000109;28;20160;-66
2023/05/09 10:45:00;;;;;;;9.23;4.25;;;21.90;99.90;;;;;;4989725;28;20036;-67
2023/05/09 10:47:26;;;;;;;8.30;4.28;;;21.80;99.90;;;;;;4997448;28;20038;-66
2023/05/09 10:49:53;;;;;;;6.90;3.97;;;21.80;99.90;;;;;;5001079;28;20490;-66
2023/05/09 10:52:21;;;;;;;7.05;3.90;;;21.80;99.90;;;;;;5005647;28;20045;-67
2023/05/09 10:55:00;;;;;;;6.90;3.58;;;21.80;99.90;;;;;;5007803;28;20184;-66
2023/05/09 10:57:30;;;;;;;6.07;3.80;;;21.60;99.90;;;;;;5001139;28;20764;-66
2023/05/09 10:59:57;;;;;;;7.75;4.35;;;21.70;99.90;;;;;;4998309;28;20512;-66
2023/05/09 11:02:28;;;;;;;10.65;5.15;;;21.70;99.90;;;;;;4995910;28;20501;-67
2023/05/09 11:05:13;;;;;;;10.70;5.00;;;21.60;99.90;;;;;;4992614;28;20555;-65
2023/05/09 11:07:39;;;;;;;6.78;5.40;;;21.60;99.90;;;;;;4998196;28;20107;-64
2023/05/09 11:10:18;;;;;;;7.82;5.38;;;21.60;99.90;;;;;;4989670;28;20469;-66
2023/05/09 11:12:54;;;;;;;11.13;6.40;;;21.60;99.90;;;;;;4970494;28;20034;-67
2023/05/09 11:15:21;;;;;;;9.13;5.97;;;21.70;99.90;;;;;;4999711;28;20566;-67
2023/05/09 11:17:50;;;;;;;8.27;5.10;;;21.70;99.90;;;;;;4999358;28;20034;-67
2023/05/09 11:20:16;;;;;;;9.90;4.90;;;21.60;99.90;;;;;;4979791;28;20081;-66
2023/05/09 11:22:43;;;;;;;8.00;5.05;;;21.50;99.90;;;;;;4999091;28;20046;-67
2023/05/09 11:25:10;;;;;;;8.15;5.10;;;21.50;99.90;;;;;;4998291;28;20041;-67
2023/05/09 11:27:48;;;;;;;6.47;4.95;;;21.40;99.90;;;;;;4992176;28;20584;-67
2023/05/09 11:30:16;;;;;;;6.30;4.93;;;21.30;99.90;;;;;;4997825;28;20381;-67
2023/05/09 11:32:54;;;;;;;9.55;4.95;;;21.30;99.90;;;;;;5001243;28;20044;-67
2023/05/09 11:35:21;;;;;;;7.32;6.47;;;21.20;99.90;;;;;;4995743;28;20121;-67
2023/05/09 11:37:48;;;;;;;12.93;7.32;;;21.10;99.90;;;;;;4997423;28;20034;-67
2023/05/09 11:40:16;;;;;;;11.45;6.40;;;;;;;;;;4997311;28;20049;-68
2023/05/09 11:42:44;;;;;;;9.43;6.68;;;;;;;;;;4997175;28;20053;-67
2023/05/09 11:45:11;;;;;;;9.52;6.75;;;;;;;;;;4997716;28;20041;-67
2023/05/09 11:47:38;;;;;;;8.57;6.65;;;;;;;;;;4994955;28;20046;-67
2023/05/09 11:50:06;;;;;;;8.73;6.22;;;20.30;99.90;;;;;;4994788;28;20440;-67
2023/05/09 11:52:33;;;;;;;12.50;6.90;;;20.40;99.90;;;;;;4995972;28;20041;-67
2023/05/09 11:54:58;;;;;;;8.35;6.13;;;20.30;99.90;;;;;;4999452;28;20038;-68
2023/05/09 11:57:24;;;;;;;8.55;5.97;;;20.30;99.90;;;;;;4992616;28;20040;-67
2023/05/09 11:59:50;;;;;;;8.10;6.13;;;20.40;99.90;;;;;;4987197;28;20175;-67
2023/05/09 12:02:15;;;;;;;10.75;7.60;;;20.30;99.90;;;;;;4999091;28;20120;-62
2023/05/09 12:04:42;;;;;;;14.80;8.95;;;20.30;99.90;;;;;;4998493;28;20053;-59
2023/05/09 12:07:10;;;;;;;15.43;8.57;;;20.10;99.90;;;;;;4999015;28;20045;-59
2023/05/09 12:09:37;;;;;;;18.67;10.00;;;20.00;99.90;;;;;;5000713;28;20044;-58
2023/05/09 12:12:11;;;;;;;16.83;10.48;;;19.70;99.90;;;;;;5000635;28;20092;-58
2023/05/09 12:14:38;;;;;;;17.95;11.00;;;19.60;99.90;;;;;;5000573;28;20045;-58
2023/05/09 12:17:04;;;;;;;13.05;10.63;;;18.90;99.90;;;;;;4990223;28;20041;-57
2023/05/09 12:19:29;;;;;;;14.25;10.80;;;18.70;99.90;;;;;;4993029;28;20042;-58
2023/05/09 12:21:58;;;;;;;14.70;11.20;;;19.20;99.90;;;;;;4997419;28;20615;-58
2023/05/09 12:24:27;;;;;;;13.25;10.38;;;18.90;99.90;;;;;;4992082;28;20037;-58
2023/05/09 12:26:57;;;;;;;14.02;10.88;;;18.90;99.90;;;;;;4998182;28;20127;-58
2023/05/09 12:29:24;;;;;;;16.17;11.93;;;18.90;99.90;;;;;;4993278;28;20132;-58
2023/05/09 12:31:52;;;;;;;14.52;11.90;;;19.00;99.90;;;;;;5001107;28;20045;-58
2023/05/09 12:34:18;;;;;;;19.90;11.95;;;19.10;99.90;;;;;;5000896;28;20038;-59
2023/05/09 12:36:50;;;;;;;19.83;12.85;;;19.30;99.90;;;;;;4998989;28;20290;-58
2023/05/09 12:39:18;;;;;;;21.38;14.98;;;19.20;99.90;;;;;;5000530;28;20048;-58